createdAt,value
2023-02-06T00:00:53.716Z,11.60
2023-02-06T00:03:20.859Z,11.70
2023-02-06T00:05:58.940Z,11.60
2023-02-06T00:08:27.914Z,11.50
2023-02-06T00:10:55.273Z,11.40
2023-02-06T00:13:22.515Z,11.30
2023-02-06T00:15:49.804Z,11.50
2023-02-06T00:18:17.190Z,11.70
2023-02-06T00:20:44.422Z,11.60
2023-02-06T00:23:11.621Z,11.70
2023-02-06T00:25:38.875Z,11.70
2023-02-06T00:28:06.177Z,11.60
2023-02-06T00:30:33.499Z,11.60
2023-02-06T00:33:00.686Z,11.60
2023-02-06T00:35:27.936Z,11.60
2023-02-06T00:37:55.164Z,11.60
2023-02-06T00:40:22.278Z,11.60
2023-02-06T00:42:49.378Z,11.80
2023-02-06T00:45:16.617Z,11.70
2023-02-06T00:47:43.722Z,11.70
2023-02-06T00:50:10.986Z,11.80
2023-02-06T00:52:38.186Z,11.80
2023-02-06T00:55:06.275Z,11.80
2023-02-06T00:57:33.518Z,11.80
2023-02-06T01:00:00.701Z,11.70
2023-02-06T01:02:27.889Z,11.80
2023-02-06T01:04:55.080Z,11.80
2023-02-06T01:07:22.223Z,11.60
2023-02-06T01:09:49.367Z,11.70
2023-02-06T01:12:16.556Z,11.70
2023-02-06T01:14:43.774Z,11.70
2023-02-06T01:17:11.127Z,11.60
2023-02-06T01:19:38.784Z,11.60
2023-02-06T01:22:06.198Z,11.60
2023-02-06T01:24:33.229Z,11.60
2023-02-06T01:27:00.582Z,11.60
2023-02-06T01:29:27.688Z,11.50
2023-02-06T01:31:54.930Z,11.50
2023-02-06T01:34:22.113Z,11.50
2023-02-06T01:36:49.274Z,11.50
2023-02-06T01:39:16.446Z,11.40
2023-02-06T01:41:43.618Z,11.40
2023-02-06T01:44:17.726Z,11.50
2023-02-06T01:46:47.466Z,11.50
2023-02-06T01:49:25.072Z,11.40
2023-02-06T01:51:56.383Z,11.40
2023-02-06T01:54:24.202Z,11.40
2023-02-06T01:56:56.891Z,11.40
2023-02-06T01:59:25.483Z,11.30
2023-02-06T02:01:52.745Z,11.30
2023-02-06T02:04:22.933Z,11.30
2023-02-06T02:07:02.269Z,11.30
2023-02-06T02:09:30.241Z,11.20
2023-02-06T02:12:00.209Z,11.10
2023-02-06T02:14:27.482Z,11.10
2023-02-06T02:17:29.714Z,11.10
2023-02-06T02:20:34.593Z,11.10
2023-02-06T02:23:30.193Z,11.00
2023-02-06T02:26:58.779Z,11.00
2023-02-06T02:29:56.988Z,11.00
2023-02-06T02:32:45.063Z,10.90
2023-02-06T02:35:27.516Z,10.80
2023-02-06T02:37:57.361Z,10.80
2023-02-06T02:40:27.336Z,10.80
2023-02-06T02:43:37.248Z,10.80
2023-02-06T02:46:14.353Z,10.80
2023-02-06T02:48:44.462Z,10.60
2023-02-06T02:51:12.375Z,10.60
2023-02-06T02:53:39.630Z,10.40
2023-02-06T02:56:22.073Z,10.10
2023-02-06T02:58:58.304Z,9.90
2023-02-06T03:01:34.158Z,9.70
2023-02-06T03:04:06.938Z,9.70
2023-02-06T03:07:08.718Z,9.50
2023-02-06T03:10:06.927Z,9.20
2023-02-06T03:12:47.943Z,9.20
2023-02-06T03:15:30.701Z,9.20
2023-02-06T03:18:19.141Z,9.10
2023-02-06T03:20:48.454Z,8.90
2023-02-06T03:23:25.055Z,8.90
2023-02-06T03:25:56.083Z,8.80
2023-02-06T03:28:28.171Z,8.70
2023-02-06T03:30:59.024Z,8.70
2023-02-06T03:33:33.680Z,8.60
2023-02-06T03:36:01.248Z,8.60
2023-02-06T03:38:28.457Z,8.50
2023-02-06T03:40:57.863Z,8.50
2023-02-06T03:43:27.343Z,8.40
2023-02-06T03:46:00.608Z,8.40
2023-02-06T03:48:33.631Z,8.30
2023-02-06T03:51:07.284Z,8.20
2023-02-06T03:53:37.564Z,8.10
2023-02-06T03:56:16.326Z,8.10
2023-02-06T03:58:43.507Z,8.10
2023-02-06T04:01:12.146Z,8.00
2023-02-06T04:03:39.313Z,7.90
2023-02-06T04:06:06.653Z,7.80
2023-02-06T04:08:33.736Z,8.00
2023-02-06T04:11:00.894Z,7.70
2023-02-06T04:13:27.983Z,7.80
2023-02-06T04:15:56.502Z,7.70
2023-02-06T04:18:24.286Z,7.80
2023-02-06T04:20:52.665Z,7.80
2023-02-06T04:23:20.832Z,7.70
2023-02-06T04:25:48.244Z,7.80
2023-02-06T04:28:15.545Z,7.80
2023-02-06T04:30:42.855Z,7.70
2023-02-06T04:33:10.180Z,7.70
2023-02-06T04:35:37.687Z,7.50
2023-02-06T04:38:04.958Z,7.50
2023-02-06T04:40:32.184Z,7.60
2023-02-06T04:42:59.330Z,7.50
2023-02-06T04:45:26.472Z,7.40
2023-02-06T04:47:53.649Z,7.50
2023-02-06T04:50:20.875Z,7.40
2023-02-06T04:52:48.091Z,7.30
2023-02-06T04:55:15.302Z,7.30
2023-02-06T04:57:42.661Z,7.30
2023-02-06T05:00:10.681Z,7.60
2023-02-06T05:02:39.970Z,7.30
2023-02-06T05:05:08.613Z,7.40
2023-02-06T05:07:36.285Z,7.60
2023-02-06T05:10:04.002Z,7.60
2023-02-06T05:12:31.199Z,7.90
2023-02-06T05:14:58.315Z,8.20
2023-02-06T05:17:25.579Z,8.50
2023-02-06T05:19:52.731Z,8.80
2023-02-06T05:22:19.832Z,8.20
2023-02-06T05:24:47.069Z,8.30
2023-02-06T05:27:14.259Z,8.40
2023-02-06T05:29:41.497Z,8.10
2023-02-06T05:32:08.573Z,7.70
2023-02-06T05:34:35.875Z,7.40
2023-02-06T05:37:03.239Z,7.20
2023-02-06T05:41:58.022Z,7.00
2023-02-06T05:44:25.209Z,7.10
2023-02-06T05:46:52.341Z,7.20
2023-02-06T05:49:19.429Z,7.00
2023-02-06T05:51:46.633Z,6.90
2023-02-06T05:54:17.153Z,6.80
2023-02-06T05:56:45.528Z,6.80
2023-02-06T05:59:12.830Z,6.70
2023-02-06T06:01:40.071Z,7.00
2023-02-06T06:04:07.404Z,7.30
2023-02-06T06:06:34.471Z,7.20
2023-02-06T06:09:01.521Z,7.00
2023-02-06T06:11:33.424Z,7.40
2023-02-06T06:14:00.662Z,7.80
2023-02-06T06:16:27.721Z,7.40
2023-02-06T06:18:55.824Z,6.90
2023-02-06T06:21:23.306Z,6.70
2023-02-06T06:23:50.534Z,6.60
2023-02-06T06:26:17.601Z,6.60
2023-02-06T06:28:44.857Z,6.70
2023-02-06T06:31:12.439Z,6.70
2023-02-06T06:33:40.090Z,6.70
2023-02-06T06:36:09.083Z,6.60
2023-02-06T06:38:36.355Z,6.60
2023-02-06T06:41:04.366Z,6.40
2023-02-06T06:43:31.544Z,6.50
2023-02-06T06:46:00.455Z,6.60
2023-02-06T06:48:28.043Z,6.60
2023-02-06T06:50:55.129Z,6.60
2023-02-06T06:53:22.416Z,6.60
2023-02-06T06:55:49.865Z,6.70
2023-02-06T06:58:16.853Z,6.70
2023-02-06T07:00:43.918Z,6.70
2023-02-06T07:03:12.055Z,6.60
2023-02-06T07:05:39.518Z,6.70
2023-02-06T07:08:06.562Z,6.80
2023-02-06T07:10:33.552Z,6.60
2023-02-06T07:13:00.622Z,6.50
2023-02-06T07:15:27.637Z,6.60
2023-02-06T07:17:54.605Z,6.60
2023-02-06T07:20:21.688Z,6.70
2023-02-06T07:22:50.308Z,6.60
2023-02-06T07:25:20.100Z,6.50
2023-02-06T07:27:47.683Z,6.70
2023-02-06T07:30:15.282Z,6.70
2023-02-06T07:32:42.363Z,6.70
2023-02-06T07:35:09.439Z,6.50
2023-02-06T07:37:36.776Z,6.40
2023-02-06T07:40:04.675Z,6.40
2023-02-06T07:42:33.523Z,6.40
2023-02-06T07:45:00.785Z,6.50
2023-02-06T07:47:27.791Z,6.50
2023-02-06T07:49:54.910Z,6.50
2023-02-06T07:52:22.428Z,6.60
2023-02-06T07:54:49.361Z,6.60
2023-02-06T07:57:19.164Z,6.50
2023-02-06T07:59:46.135Z,6.70
2023-02-06T08:02:13.305Z,6.70
2023-02-06T08:04:40.446Z,6.90
2023-02-06T08:26:13.734Z,10.00
2023-02-06T09:47:23.462Z,11.90
2023-02-06T09:49:54.400Z,11.90
2023-02-06T09:52:52.262Z,11.80
2023-02-06T09:55:19.286Z,11.80
2023-02-06T09:57:46.315Z,11.80
2023-02-06T10:00:50.404Z,11.90
2023-02-06T10:03:17.512Z,11.80
2023-02-06T10:05:57.193Z,11.90
2023-02-06T10:09:07.381Z,11.80
2023-02-06T10:11:52.474Z,11.40
2023-02-06T10:14:28.394Z,11.30
2023-02-06T10:17:06.537Z,11.30
2023-02-06T10:19:52.714Z,11.10
2023-02-06T10:22:36.892Z,11.10
2023-02-06T10:25:28.714Z,11.30
2023-02-06T10:28:00.980Z,11.40
2023-02-06T10:30:49.061Z,11.50
2023-02-06T10:33:27.036Z,11.50
2023-02-06T10:36:21.475Z,11.30
2023-02-06T10:39:06.114Z,11.00
2023-02-06T10:41:46.598Z,11.10
2023-02-06T10:44:32.300Z,11.30
2023-02-06T10:47:00.350Z,10.90
2023-02-06T10:49:48.006Z,11.00
2023-02-06T10:52:21.057Z,11.10
2023-02-06T10:54:53.874Z,11.00
2023-02-06T10:57:25.085Z,11.00
2023-02-06T10:59:54.713Z,11.10
2023-02-06T11:03:06.258Z,11.30
2023-02-06T11:05:35.306Z,11.10
2023-02-06T11:08:08.445Z,11.20
2023-02-06T11:10:36.142Z,10.90
2023-02-06T11:13:14.038Z,11.00
2023-02-06T11:15:51.539Z,11.20
2023-02-06T11:18:24.106Z,11.30
2023-02-06T11:20:51.666Z,11.40
2023-02-06T11:23:28.043Z,11.50
2023-02-06T11:26:05.430Z,11.50
2023-02-06T11:28:34.661Z,11.40
2023-02-06T11:31:03.193Z,11.50
2023-02-06T11:33:36.395Z,11.50
2023-02-06T11:36:05.252Z,11.50
2023-02-06T11:38:33.117Z,11.50
2023-02-06T11:41:02.983Z,11.50
2023-02-06T11:43:41.936Z,11.50
2023-02-06T11:46:19.175Z,11.40
2023-02-06T11:48:49.142Z,11.40
2023-02-06T11:51:16.957Z,11.40
2023-02-06T11:54:04.202Z,11.30
2023-02-06T11:56:32.113Z,11.30
2023-02-06T11:59:16.830Z,11.30
2023-02-06T12:01:47.264Z,11.10
2023-02-06T12:04:34.094Z,11.00
2023-02-06T12:07:13.901Z,11.20
2023-02-06T12:09:40.984Z,11.20
2023-02-06T12:12:20.040Z,11.30
2023-02-06T12:14:52.921Z,11.20
2023-02-06T12:17:35.716Z,11.30
2023-02-06T12:20:14.628Z,11.20
2023-02-06T12:23:15.397Z,11.20
2023-02-06T12:25:46.500Z,11.20
2023-02-06T12:28:22.639Z,11.20
2023-02-06T12:31:09.269Z,11.10
2023-02-06T12:33:42.074Z,11.20
2023-02-06T12:36:22.344Z,10.90
2023-02-06T12:39:07.427Z,10.90
2023-02-06T12:42:02.433Z,10.90
2023-02-06T12:45:01.844Z,10.90
2023-02-06T12:47:41.150Z,11.10
2023-02-06T12:50:16.419Z,11.10
2023-02-06T12:52:58.308Z,11.10
2023-02-06T12:55:28.052Z,11.00
2023-02-06T12:57:55.633Z,10.90
2023-02-06T13:00:45.737Z,11.00
2023-02-06T13:03:22.837Z,11.20
2023-02-06T13:06:00.262Z,10.90
2023-02-06T13:08:39.268Z,11.10
2023-02-06T13:11:35.645Z,11.10
2023-02-06T13:14:18.266Z,11.20
2023-02-06T13:16:45.361Z,11.20
2023-02-06T13:19:49.292Z,11.20
2023-02-06T13:22:17.474Z,11.10
2023-02-06T13:24:47.324Z,11.10
2023-02-06T13:27:16.601Z,11.00
2023-02-06T13:29:45.288Z,11.10
2023-02-06T13:32:12.340Z,11.20
2023-02-06T13:34:44.341Z,11.20
2023-02-06T13:37:32.068Z,11.20
2023-02-06T13:40:23.750Z,11.20
2023-02-06T13:42:56.915Z,11.30
2023-02-06T13:45:29.385Z,11.20
2023-02-06T13:48:40.045Z,11.30
2023-02-06T13:51:16.865Z,11.20
2023-02-06T13:53:46.589Z,11.10
2023-02-06T13:56:38.179Z,11.20
2023-02-06T13:59:16.946Z,11.30
2023-02-06T14:01:44.811Z,11.30
2023-02-06T14:04:28.558Z,11.00
2023-02-06T14:07:44.178Z,11.00
2023-02-06T14:10:54.310Z,11.00
2023-02-06T14:13:52.205Z,11.20
2023-02-06T14:16:39.023Z,11.20
2023-02-06T14:19:15.549Z,11.10
2023-02-06T14:22:09.620Z,11.00
2023-02-06T14:25:09.299Z,10.90
2023-02-06T14:28:02.310Z,11.00
2023-02-06T14:30:45.899Z,10.90
2023-02-06T14:33:21.715Z,11.00
2023-02-06T14:36:18.369Z,10.90
2023-02-06T14:38:51.359Z,10.90
2023-02-06T14:41:19.233Z,10.80
2023-02-06T14:43:48.923Z,10.80
2023-02-06T14:46:18.378Z,10.80
2023-02-06T14:48:49.612Z,10.80
2023-02-06T14:51:25.647Z,10.80
2023-02-06T14:53:56.456Z,10.60
2023-02-06T14:56:31.417Z,10.60
2023-02-06T14:59:13.508Z,10.50
2023-02-06T15:01:44.610Z,10.50
2023-02-06T15:04:14.944Z,10.50
2023-02-06T15:07:02.497Z,10.40
2023-02-06T15:09:37.862Z,10.40
2023-02-06T15:12:18.191Z,10.40
2023-02-06T15:15:02.807Z,10.30
2023-02-06T15:17:31.163Z,10.30
2023-02-06T15:20:25.526Z,10.20
2023-02-06T15:22:55.358Z,10.20
2023-02-06T15:25:51.460Z,10.20
2023-02-06T15:28:26.864Z,10.20
2023-02-06T15:30:59.029Z,10.10
2023-02-06T15:33:30.267Z,10.00
2023-02-06T15:35:59.511Z,10.00
2023-02-06T15:38:29.192Z,10.00
2023-02-06T15:41:00.150Z,10.00
2023-02-06T15:43:28.216Z,10.00
2023-02-06T15:45:58.842Z,10.00
2023-02-06T15:48:40.236Z,10.00
2023-02-06T15:51:18.785Z,10.00
2023-02-06T15:53:48.460Z,10.00
2023-02-06T15:56:35.859Z,9.90
2023-02-06T15:59:06.243Z,10.00
2023-02-06T16:01:38.702Z,9.90
2023-02-06T16:04:09.470Z,9.90
2023-02-06T16:06:37.458Z,9.90
2023-02-06T16:09:07.387Z,9.80
2023-02-06T16:11:46.695Z,9.80
2023-02-06T16:14:38.746Z,9.80
2023-02-06T16:17:14.694Z,9.80
2023-02-06T16:19:47.485Z,9.80
2023-02-06T16:22:18.666Z,9.80
2023-02-06T16:24:46.044Z,9.70
2023-02-06T16:27:19.703Z,9.70
2023-02-06T16:29:50.136Z,9.70
2023-02-06T16:32:31.349Z,9.80
2023-02-06T16:35:01.162Z,9.80
2023-02-06T16:37:30.163Z,9.80
2023-02-06T16:39:57.220Z,9.80
2023-02-06T16:42:35.205Z,9.80
2023-02-06T16:45:08.139Z,9.90
2023-02-06T16:47:35.674Z,9.90
2023-02-06T16:50:02.814Z,10.00
2023-02-06T16:52:33.231Z,9.90
2023-02-06T16:55:01.685Z,9.90
2023-02-06T16:57:39.141Z,9.80
2023-02-06T17:00:16.590Z,9.90
2023-02-06T17:02:44.976Z,9.90
2023-02-06T17:05:12.179Z,9.80
2023-02-06T17:07:39.724Z,9.80
2023-02-06T17:10:07.803Z,9.80
2023-02-06T17:12:35.507Z,9.80
2023-02-06T17:15:02.574Z,9.80
2023-02-06T17:17:29.830Z,9.80
2023-02-06T17:19:57.343Z,9.80
2023-02-06T17:22:24.698Z,9.80
2023-02-06T17:24:51.702Z,9.80
2023-02-06T17:27:21.942Z,9.60
2023-02-06T17:29:49.905Z,9.50
2023-02-06T17:32:22.064Z,9.50
2023-02-06T17:34:51.165Z,9.50
2023-02-06T17:37:20.885Z,9.60
2023-02-06T17:39:52.259Z,9.70
2023-02-06T17:42:21.798Z,9.80
2023-02-06T17:44:49.039Z,9.70
2023-02-06T17:47:16.155Z,9.60
2023-02-06T17:49:43.120Z,9.40
2023-02-06T17:52:10.156Z,9.40
2023-02-06T17:54:37.141Z,9.40
2023-02-06T17:57:04.252Z,9.10
2023-02-06T17:59:31.469Z,9.00
2023-02-06T18:01:59.506Z,9.00
2023-02-06T18:04:26.751Z,9.10
2023-02-06T18:06:54.048Z,9.00
2023-02-06T18:09:20.999Z,9.40
2023-02-06T18:11:47.968Z,9.20
2023-02-06T18:14:15.705Z,9.30
2023-02-06T18:16:43.078Z,9.20
2023-02-06T18:19:10.575Z,9.30
2023-02-06T18:21:37.565Z,9.40
2023-02-06T18:24:05.429Z,9.50
2023-02-06T18:26:32.729Z,9.60
2023-02-06T18:29:02.767Z,9.60
2023-02-06T18:31:35.804Z,9.70
2023-02-06T18:34:07.713Z,9.60
2023-02-06T18:36:38.318Z,9.60
2023-02-06T18:39:06.025Z,9.60
2023-02-06T18:41:51.392Z,9.50
2023-02-06T18:44:18.359Z,9.60
2023-02-06T18:46:45.424Z,9.60
2023-02-06T18:49:12.817Z,9.60
2023-02-06T18:51:39.801Z,9.40
2023-02-06T18:54:08.020Z,9.30
2023-02-06T18:56:35.345Z,9.20
2023-02-06T18:59:03.974Z,9.20
2023-02-06T19:01:32.193Z,9.20
2023-02-06T19:03:59.640Z,9.30
2023-02-06T19:06:31.766Z,9.30
2023-02-06T19:08:59.661Z,9.30
2023-02-06T19:11:27.130Z,9.40
2023-02-06T19:13:55.592Z,9.30
2023-02-06T19:16:22.965Z,9.10
2023-02-06T19:18:50.302Z,9.00
2023-02-06T19:21:19.558Z,9.10
2023-02-06T19:23:52.484Z,9.00
2023-02-06T19:26:19.426Z,9.10
2023-02-06T19:28:46.855Z,9.20
2023-02-06T19:31:15.483Z,9.10
2023-02-06T19:33:45.139Z,9.30
2023-02-06T19:36:14.412Z,9.50
2023-02-06T19:38:41.895Z,9.40
2023-02-06T19:41:10.571Z,9.40
2023-02-06T19:43:38.231Z,9.50
2023-02-06T19:46:06.929Z,9.50
2023-02-06T19:48:35.455Z,9.50
2023-02-06T19:51:08.848Z,9.60
2023-02-06T19:53:36.301Z,9.60
2023-02-06T19:56:06.282Z,9.60
2023-02-06T19:58:33.397Z,9.50
2023-02-06T20:01:12.263Z,9.60
2023-02-06T20:03:39.732Z,9.60
2023-02-06T20:06:10.502Z,9.60
2023-02-06T20:08:38.791Z,9.60
2023-02-06T20:11:12.061Z,9.60
2023-02-06T20:13:40.152Z,9.60
2023-02-06T20:16:18.394Z,9.60
2023-02-06T20:18:45.565Z,9.60
2023-02-06T20:21:26.752Z,9.70
2023-02-06T20:23:55.838Z,9.60
2023-02-06T20:26:24.994Z,9.60
2023-02-06T20:28:52.986Z,9.60
2023-02-06T20:31:21.166Z,9.60
2023-02-06T20:33:49.185Z,9.60
2023-02-06T20:36:19.189Z,9.60
2023-02-06T20:38:58.595Z,9.60
2023-02-06T20:41:28.690Z,9.60
2023-02-06T20:43:57.387Z,9.60
2023-02-06T20:46:25.335Z,9.60
2023-02-06T20:48:55.345Z,9.60
2023-02-06T20:51:22.910Z,9.60
2023-02-06T20:53:50.427Z,9.60
2023-02-06T20:56:20.352Z,9.60
2023-02-06T20:58:49.376Z,9.60
2023-02-06T21:01:25.858Z,9.50
2023-02-06T21:03:56.565Z,9.50
2023-02-06T21:06:24.351Z,9.50
2023-02-06T21:08:56.549Z,9.50
2023-02-06T21:11:23.696Z,9.60
2023-02-06T21:13:50.734Z,9.60
2023-02-06T21:16:17.714Z,9.50
2023-02-06T21:18:44.713Z,9.50
2023-02-06T21:21:14.601Z,9.50
2023-02-06T21:23:43.133Z,9.60
2023-02-06T21:26:12.293Z,9.50
2023-02-06T21:28:40.512Z,9.50
2023-02-06T21:31:14.459Z,9.50
2023-02-06T21:33:41.797Z,9.50
2023-02-06T21:36:09.291Z,9.60
2023-02-06T21:38:37.029Z,9.50
2023-02-06T21:41:12.589Z,9.50
2023-02-06T21:43:39.526Z,9.50
2023-02-06T21:46:06.954Z,9.60
2023-02-06T21:48:35.198Z,9.60
2023-02-06T21:51:17.141Z,9.60
2023-02-06T21:53:45.566Z,9.60
2023-02-06T21:56:23.901Z,9.60
2023-02-06T21:58:51.306Z,9.60
2023-02-06T22:01:23.567Z,9.50
2023-02-06T22:03:51.121Z,9.60
2023-02-06T22:06:20.087Z,9.60
2023-02-06T22:08:51.960Z,9.60
2023-02-06T22:11:27.776Z,9.60
2023-02-06T22:14:00.269Z,9.60
2023-02-06T22:16:28.408Z,9.60
2023-02-06T22:18:55.987Z,9.60
2023-02-06T22:21:25.595Z,9.50
2023-02-06T22:23:55.606Z,9.50
2023-02-06T22:26:22.768Z,9.50
2023-02-06T22:28:50.267Z,9.60
2023-02-06T22:31:26.145Z,9.60
2023-02-06T22:33:53.901Z,9.50
2023-02-06T22:36:24.563Z,9.60
2023-02-06T22:39:06.756Z,9.60
2023-02-06T22:41:35.617Z,9.50
2023-02-06T22:44:02.756Z,9.50
2023-02-06T22:46:33.522Z,9.60
2023-02-06T22:49:01.227Z,9.50
2023-02-06T22:51:28.873Z,9.50
2023-02-06T22:53:56.994Z,9.50
2023-02-06T22:56:31.568Z,9.60
2023-02-06T22:59:06.772Z,9.60
2023-02-06T23:01:56.170Z,9.70
2023-02-06T23:04:28.666Z,9.70
2023-02-06T23:06:56.383Z,9.70
2023-02-06T23:09:26.794Z,9.70
2023-02-06T23:11:55.272Z,9.70
2023-02-06T23:14:22.346Z,9.60
2023-02-06T23:16:49.671Z,9.40
2023-02-06T23:19:18.170Z,9.40
2023-02-06T23:21:47.553Z,9.40
2023-02-06T23:24:14.808Z,9.20
2023-02-06T23:26:43.943Z,9.30
2023-02-06T23:29:15.947Z,9.30
2023-02-06T23:31:47.585Z,9.30
2023-02-06T23:34:16.739Z,9.30
2023-02-06T23:36:44.270Z,9.20
2023-02-06T23:39:12.092Z,9.20
2023-02-06T23:41:39.753Z,9.10
2023-02-06T23:44:08.251Z,9.20
2023-02-06T23:46:37.600Z,9.20
2023-02-06T23:49:05.325Z,9.20
2023-02-06T23:51:33.057Z,9.20
2023-02-06T23:54:00.366Z,9.20
2023-02-06T23:56:29.988Z,9.20
2023-02-06T23:58:58.778Z,9.20
